sensor_id;sensor_type;location;lat;lon;timestamp;temperature;humidity
674;DHT22;319;48.764;9.174;2023-05-10T00:01:14;16.20;99.90
674;DHT22;319;48.764;9.174;2023-05-10T00:03:41;16.10;99.90
674;DHT22;319;48.764;9.174;2023-05-10T00:06:08;16.00;99.90
674;DHT22;319;48.764;9.174;2023-05-10T00:08:36;16.10;99.90
674;DHT22;319;48.764;9.174;2023-05-10T00:11:03;16.10;99.90
674;DHT22;319;48.764;9.174;2023-05-10T00:13:30;16.10;99.90
674;DHT22;319;48.764;9.174;2023-05-10T00:15:58;16.10;99.90
674;DHT22;319;48.764;9.174;2023-05-10T00:18:25;16.10;99.90
674;DHT22;319;48.764;9.174;2023-05-10T00:20:54;16.10;99.90
674;DHT22;319;48.764;9.174;2023-05-10T00:23:21;16.00;99.90
674;DHT22;319;48.764;9.174;2023-05-10T00:25:50;15.90;99.90
674;DHT22;319;48.764;9.174;2023-05-10T00:28:17;16.00;99.90
674;DHT22;319;48.764;9.174;2023-05-10T00:30:43;15.90;99.90
674;DHT22;319;48.764;9.174;2023-05-10T00:33:10;15.80;99.90
674;DHT22;319;48.764;9.174;2023-05-10T00:35:38;15.80;99.90
674;DHT22;319;48.764;9.174;2023-05-10T00:38:04;15.70;99.90
674;DHT22;319;48.764;9.174;2023-05-10T00:40:31;15.70;99.90
674;DHT22;319;48.764;9.174;2023-05-10T00:43:00;15.60;99.90
674;DHT22;319;48.764;9.174;2023-05-10T00:45:27;15.60;99.90
674;DHT22;319;48.764;9.174;2023-05-10T00:47:53;15.60;99.90
674;DHT22;319;48.764;9.174;2023-05-10T00:50:21;15.60;99.90
674;DHT22;319;48.764;9.174;2023-05-10T00:52:49;15.60;99.90
674;DHT22;319;48.764;9.174;2023-05-10T00:55:16;15.70;99.90
674;DHT22;319;48.764;9.174;2023-05-10T00:57:44;15.60;99.90
674;DHT22;319;48.764;9.174;2023-05-10T01:00:13;15.60;99.90
674;DHT22;319;48.764;9.174;2023-05-10T01:02:43;15.60;99.90
674;DHT22;319;48.764;9.174;2023-05-10T01:05:10;15.50;99.90
674;DHT22;319;48.764;9.174;2023-05-10T01:07:38;15.50;99.90
674;DHT22;319;48.764;9.174;2023-05-10T01:10:05;15.40;99.90
674;DHT22;319;48.764;9.174;2023-05-10T01:12:33;15.40;99.90
674;DHT22;319;48.764;9.174;2023-05-10T01:15:01;15.40;99.90
674;DHT22;319;48.764;9.174;2023-05-10T01:17:29;15.40;99.90
674;DHT22;319;48.764;9.174;2023-05-10T01:19:57;15.40;99.90
674;DHT22;319;48.764;9.174;2023-05-10T01:22:42;15.50;99.90
674;DHT22;319;48.764;9.174;2023-05-10T01:25:36;15.40;99.90
674;DHT22;319;48.764;9.174;2023-05-10T01:34:40;15.50;99.90
674;DHT22;319;48.764;9.174;2023-05-10T01:37:13;15.60;99.90
674;DHT22;319;48.764;9.174;2023-05-10T01:39:45;15.50;99.90
674;DHT22;319;48.764;9.174;2023-05-10T01:42:17;15.50;99.90
674;DHT22;319;48.764;9.174;2023-05-10T01:44:51;15.40;99.90
674;DHT22;319;48.764;9.174;2023-05-10T01:47:23;15.50;99.90
674;DHT22;319;48.764;9.174;2023-05-10T01:49:55;15.50;99.90
674;DHT22;319;48.764;9.174;2023-05-10T01:52:26;15.60;99.90
674;DHT22;319;48.764;9.174;2023-05-10T01:55:01;15.60;99.90
674;DHT22;319;48.764;9.174;2023-05-10T01:57:33;15.60;99.90
674;DHT22;319;48.764;9.174;2023-05-10T02:00:01;15.60;99.90
674;DHT22;319;48.764;9.174;2023-05-10T02:02:30;15.60;99.90
674;DHT22;319;48.764;9.174;2023-05-10T02:05:02;15.60;99.90
674;DHT22;319;48.764;9.174;2023-05-10T02:07:31;15.50;99.90
674;DHT22;319;48.764;9.174;2023-05-10T02:09:59;15.60;99.90
674;DHT22;319;48.764;9.174;2023-05-10T02:12:27;15.50;99.90
674;DHT22;319;48.764;9.174;2023-05-10T02:14:55;15.50;99.90
674;DHT22;319;48.764;9.174;2023-05-10T02:17:23;15.50;99.90
674;DHT22;319;48.764;9.174;2023-05-10T02:19:52;15.50;99.90
674;DHT22;319;48.764;9.174;2023-05-10T02:22:22;15.50;99.90
674;DHT22;319;48.764;9.174;2023-05-10T02:24:50;15.50;99.90
674;DHT22;319;48.764;9.174;2023-05-10T02:27:17;15.50;99.90
674;DHT22;319;48.764;9.174;2023-05-10T02:29:46;15.50;99.90
674;DHT22;319;48.764;9.174;2023-05-10T02:32:15;15.50;99.90
674;DHT22;319;48.764;9.174;2023-05-10T02:34:44;15.50;99.90
674;DHT22;319;48.764;9.174;2023-05-10T02:37:12;15.60;99.90
674;DHT22;319;48.764;9.174;2023-05-10T02:39:41;15.60;99.90
674;DHT22;319;48.764;9.174;2023-05-10T02:42:14;15.60;99.90
674;DHT22;319;48.764;9.174;2023-05-10T02:44:43;15.60;99.90
674;DHT22;319;48.764;9.174;2023-05-10T02:47:12;15.60;99.90
674;DHT22;319;48.764;9.174;2023-05-10T02:49:39;15.60;99.90
674;DHT22;319;48.764;9.174;2023-05-10T02:52:06;15.60;99.90
674;DHT22;319;48.764;9.174;2023-05-10T02:54:43;15.60;99.90
674;DHT22;319;48.764;9.174;2023-05-10T02:57:16;15.60;99.90
674;DHT22;319;48.764;9.174;2023-05-10T02:59:44;15.60;99.90
674;DHT22;319;48.764;9.174;2023-05-10T03:02:12;15.70;99.90
674;DHT22;319;48.764;9.174;2023-05-10T03:04:39;15.60;99.90
674;DHT22;319;48.764;9.174;2023-05-10T03:07:07;15.70;99.90
674;DHT22;319;48.764;9.174;2023-05-10T03:09:34;15.70;99.90
674;DHT22;319;48.764;9.174;2023-05-10T03:12:06;15.70;99.90
674;DHT22;319;48.764;9.174;2023-05-10T03:14:42;15.70;99.90
674;DHT22;319;48.764;9.174;2023-05-10T03:17:15;15.70;99.90
674;DHT22;319;48.764;9.174;2023-05-10T03:19:50;15.70;99.90
674;DHT22;319;48.764;9.174;2023-05-10T03:22:23;15.70;99.90
674;DHT22;319;48.764;9.174;2023-05-10T03:24:53;15.70;99.90
674;DHT22;319;48.764;9.174;2023-05-10T03:27:22;15.70;99.90
674;DHT22;319;48.764;9.174;2023-05-10T03:29:51;15.70;99.90
674;DHT22;319;48.764;9.174;2023-05-10T03:32:19;15.70;99.90
674;DHT22;319;48.764;9.174;2023-05-10T03:34:46;15.70;99.90
674;DHT22;319;48.764;9.174;2023-05-10T03:37:13;15.70;99.90
674;DHT22;319;48.764;9.174;2023-05-10T03:39:40;15.60;99.90
674;DHT22;319;48.764;9.174;2023-05-10T03:42:06;15.60;99.90
674;DHT22;319;48.764;9.174;2023-05-10T03:44:35;15.70;99.90
674;DHT22;319;48.764;9.174;2023-05-10T03:47:02;15.70;99.90
674;DHT22;319;48.764;9.174;2023-05-10T03:49:29;15.70;99.90
674;DHT22;319;48.764;9.174;2023-05-10T03:51:56;15.60;99.90
674;DHT22;319;48.764;9.174;2023-05-10T03:54:23;15.60;99.90
674;DHT22;319;48.764;9.174;2023-05-10T03:56:50;15.60;99.90
674;DHT22;319;48.764;9.174;2023-05-10T03:59:17;15.50;99.90
674;DHT22;319;48.764;9.174;2023-05-10T04:01:46;15.40;99.90
674;DHT22;319;48.764;9.174;2023-05-10T04:04:13;15.40;99.90
674;DHT22;319;48.764;9.174;2023-05-10T04:06:40;15.40;99.90
674;DHT22;319;48.764;9.174;2023-05-10T04:09:06;15.30;99.90
674;DHT22;319;48.764;9.174;2023-05-10T04:11:33;15.30;99.90
674;DHT22;319;48.764;9.174;2023-05-10T04:14:00;15.20;99.90
674;DHT22;319;48.764;9.174;2023-05-10T04:16:27;15.20;99.90
674;DHT22;319;48.764;9.174;2023-05-10T04:18:56;15.30;99.90
674;DHT22;319;48.764;9.174;2023-05-10T04:21:23;15.40;99.90
674;DHT22;319;48.764;9.174;2023-05-10T04:23:50;15.40;99.90
674;DHT22;319;48.764;9.174;2023-05-10T04:26:17;15.40;99.90
674;DHT22;319;48.764;9.174;2023-05-10T04:28:44;15.40;99.90
674;DHT22;319;48.764;9.174;2023-05-10T04:31:11;15.40;99.90
674;DHT22;319;48.764;9.174;2023-05-10T04:33:38;15.50;99.90
674;DHT22;319;48.764;9.174;2023-05-10T04:36:07;15.50;99.90
674;DHT22;319;48.764;9.174;2023-05-10T04:38:34;15.60;99.90
674;DHT22;319;48.764;9.174;2023-05-10T04:41:05;15.60;99.90
674;DHT22;319;48.764;9.174;2023-05-10T04:43:32;15.60;99.90
674;DHT22;319;48.764;9.174;2023-05-10T04:45:59;15.60;99.90
674;DHT22;319;48.764;9.174;2023-05-10T04:48:26;15.50;99.90
674;DHT22;319;48.764;9.174;2023-05-10T04:50:53;15.60;99.90
674;DHT22;319;48.764;9.174;2023-05-10T04:53:21;15.70;99.90
674;DHT22;319;48.764;9.174;2023-05-10T04:55:48;15.80;99.90
674;DHT22;319;48.764;9.174;2023-05-10T04:58:15;15.70;99.90
674;DHT22;319;48.764;9.174;2023-05-10T05:00:42;15.80;99.90
674;DHT22;319;48.764;9.174;2023-05-10T05:03:09;15.80;99.90
674;DHT22;319;48.764;9.174;2023-05-10T05:05:36;15.80;99.90
674;DHT22;319;48.764;9.174;2023-05-10T05:08:03;15.90;99.90
674;DHT22;319;48.764;9.174;2023-05-10T05:10:32;15.90;99.90
674;DHT22;319;48.764;9.174;2023-05-10T05:12:59;15.90;99.90
674;DHT22;319;48.764;9.174;2023-05-10T05:15:26;16.00;99.90
674;DHT22;319;48.764;9.174;2023-05-10T05:17:53;16.10;99.90
674;DHT22;319;48.764;9.174;2023-05-10T05:20:20;16.10;99.90
674;DHT22;319;48.764;9.174;2023-05-10T05:22:46;16.20;99.90
674;DHT22;319;48.764;9.174;2023-05-10T05:25:13;16.30;99.90
674;DHT22;319;48.764;9.174;2023-05-10T05:27:42;16.40;99.90
674;DHT22;319;48.764;9.174;2023-05-10T05:30:09;16.40;99.90
674;DHT22;319;48.764;9.174;2023-05-10T05:32:36;16.40;99.90
674;DHT22;319;48.764;9.174;2023-05-10T05:35:04;16.60;99.90
674;DHT22;319;48.764;9.174;2023-05-10T05:37:31;16.60;99.90
674;DHT22;319;48.764;9.174;2023-05-10T05:40:01;16.70;99.90
674;DHT22;319;48.764;9.174;2023-05-10T05:42:28;16.70;99.90
674;DHT22;319;48.764;9.174;2023-05-10T05:44:57;16.90;99.90
674;DHT22;319;48.764;9.174;2023-05-10T05:47:24;17.00;99.90
674;DHT22;319;48.764;9.174;2023-05-10T05:49:51;17.00;99.90
674;DHT22;319;48.764;9.174;2023-05-10T05:52:17;16.90;99.90
674;DHT22;319;48.764;9.174;2023-05-10T05:54:44;16.90;99.90
674;DHT22;319;48.764;9.174;2023-05-10T05:57:12;17.00;99.90
674;DHT22;319;48.764;9.174;2023-05-10T05:59:40;17.00;99.90
674;DHT22;319;48.764;9.174;2023-05-10T06:02:10;17.10;99.90
674;DHT22;319;48.764;9.174;2023-05-10T06:04:37;17.00;99.90
674;DHT22;319;48.764;9.174;2023-05-10T06:07:07;17.10;99.90
674;DHT22;319;48.764;9.174;2023-05-10T06:09:34;17.20;99.90
674;DHT22;319;48.764;9.174;2023-05-10T06:12:07;17.20;99.90
674;DHT22;319;48.764;9.174;2023-05-10T06:14:34;17.30;99.90
674;DHT22;319;48.764;9.174;2023-05-10T06:17:00;17.30;99.90
674;DHT22;319;48.764;9.174;2023-05-10T06:19:30;17.30;99.90
674;DHT22;319;48.764;9.174;2023-05-10T06:21:57;17.30;99.90
674;DHT22;319;48.764;9.174;2023-05-10T06:24:24;17.40;99.90
674;DHT22;319;48.764;9.174;2023-05-10T06:26:52;17.50;99.90
674;DHT22;319;48.764;9.174;2023-05-10T06:29:19;17.50;99.90
674;DHT22;319;48.764;9.174;2023-05-10T06:31:46;17.60;99.90
674;DHT22;319;48.764;9.174;2023-05-10T06:34:13;17.60;99.90
674;DHT22;319;48.764;9.174;2023-05-10T06:36:42;17.60;99.90
674;DHT22;319;48.764;9.174;2023-05-10T06:39:09;17.60;99.90
674;DHT22;319;48.764;9.174;2023-05-10T06:41:37;17.40;99.90
674;DHT22;319;48.764;9.174;2023-05-10T06:44:07;17.30;99.90
674;DHT22;319;48.764;9.174;2023-05-10T06:46:34;17.20;99.90
674;DHT22;319;48.764;9.174;2023-05-10T06:49:01;17.10;99.90
674;DHT22;319;48.764;9.174;2023-05-10T06:51:28;17.10;99.90
674;DHT22;319;48.764;9.174;2023-05-10T06:54:00;16.90;99.90
674;DHT22;319;48.764;9.174;2023-05-10T06:56:30;16.90;99.90
674;DHT22;319;48.764;9.174;2023-05-10T06:58:59;16.90;99.90
674;DHT22;319;48.764;9.174;2023-05-10T07:01:26;16.90;99.90
674;DHT22;319;48.764;9.174;2023-05-10T07:03:54;16.90;99.90
674;DHT22;319;48.764;9.174;2023-05-10T07:06:21;16.90;99.90
674;DHT22;319;48.764;9.174;2023-05-10T07:08:49;17.00;99.90
674;DHT22;319;48.764;9.174;2023-05-10T07:11:21;17.00;99.90
674;DHT22;319;48.764;9.174;2023-05-10T07:13:48;17.00;99.90
674;DHT22;319;48.764;9.174;2023-05-10T07:16:16;17.20;99.90
674;DHT22;319;48.764;9.174;2023-05-10T07:19:01;17.50;99.90
674;DHT22;319;48.764;9.174;2023-05-10T07:21:32;17.60;99.90
674;DHT22;319;48.764;9.174;2023-05-10T07:24:01;17.80;99.90
674;DHT22;319;48.764;9.174;2023-05-10T07:26:30;18.10;99.90
674;DHT22;319;48.764;9.174;2023-05-10T07:28:57;18.30;99.90
674;DHT22;319;48.764;9.174;2023-05-10T07:31:23;18.50;99.90
674;DHT22;319;48.764;9.174;2023-05-10T07:33:50;18.70;99.90
674;DHT22;319;48.764;9.174;2023-05-10T07:36:17;19.00;99.90
674;DHT22;319;48.764;9.174;2023-05-10T07:38:44;18.90;99.90
674;DHT22;319;48.764;9.174;2023-05-10T07:41:11;18.80;99.90
674;DHT22;319;48.764;9.174;2023-05-10T07:43:41;19.00;99.90
674;DHT22;319;48.764;9.174;2023-05-10T07:46:08;19.00;99.90
674;DHT22;319;48.764;9.174;2023-05-10T07:48:36;18.90;99.90
674;DHT22;319;48.764;9.174;2023-05-10T07:51:03;19.00;99.90
674;DHT22;319;48.764;9.174;2023-05-10T07:53:30;19.10;99.90
674;DHT22;319;48.764;9.174;2023-05-10T07:55:58;19.20;99.90
674;DHT22;319;48.764;9.174;2023-05-10T07:58:25;19.30;99.90
674;DHT22;319;48.764;9.174;2023-05-10T08:00:54;19.20;99.70
674;DHT22;319;48.764;9.174;2023-05-10T08:03:21;19.20;99.80
674;DHT22;319;48.764;9.174;2023-05-10T08:05:48;19.40;99.90
674;DHT22;319;48.764;9.174;2023-05-10T08:08:15;19.50;99.20
674;DHT22;319;48.764;9.174;2023-05-10T08:10:43;19.60;99.00
674;DHT22;319;48.764;9.174;2023-05-10T08:13:10;19.50;99.10
674;DHT22;319;48.764;9.174;2023-05-10T08:15:37;19.30;98.30
674;DHT22;319;48.764;9.174;2023-05-10T08:18:05;19.20;99.00
674;DHT22;319;48.764;9.174;2023-05-10T08:20:32;19.30;98.60
674;DHT22;319;48.764;9.174;2023-05-10T08:22:59;19.10;98.50
674;DHT22;319;48.764;9.174;2023-05-10T08:25:25;19.10;98.70
674;DHT22;319;48.764;9.174;2023-05-10T08:27:52;19.30;98.60
674;DHT22;319;48.764;9.174;2023-05-10T08:30:19;19.10;98.00
674;DHT22;319;48.764;9.174;2023-05-10T08:32:46;19.30;98.20
674;DHT22;319;48.764;9.174;2023-05-10T08:35:15;19.40;98.20
674;DHT22;319;48.764;9.174;2023-05-10T08:37:42;19.50;97.80
674;DHT22;319;48.764;9.174;2023-05-10T08:40:11;19.60;97.90
674;DHT22;319;48.764;9.174;2023-05-10T08:42:42;19.50;97.30
674;DHT22;319;48.764;9.174;2023-05-10T08:45:10;19.30;97.20
674;DHT22;319;48.764;9.174;2023-05-10T08:47:37;19.10;97.40
674;DHT22;319;48.764;9.174;2023-05-10T08:50:06;19.10;97.40
674;DHT22;319;48.764;9.174;2023-05-10T08:52:38;18.90;97.40
674;DHT22;319;48.764;9.174;2023-05-10T08:55:06;18.90;97.70
674;DHT22;319;48.764;9.174;2023-05-10T08:57:36;18.90;97.90
674;DHT22;319;48.764;9.174;2023-05-10T09:00:04;19.10;97.60
674;DHT22;319;48.764;9.174;2023-05-10T09:02:32;19.20;97.50
674;DHT22;319;48.764;9.174;2023-05-10T09:04:59;19.30;97.10
674;DHT22;319;48.764;9.174;2023-05-10T09:07:27;19.60;96.90
674;DHT22;319;48.764;9.174;2023-05-10T09:09:55;19.80;96.90
674;DHT22;319;48.764;9.174;2023-05-10T09:12:23;20.00;95.80
674;DHT22;319;48.764;9.174;2023-05-10T09:14:51;20.20;95.50
674;DHT22;319;48.764;9.174;2023-05-10T09:17:18;20.40;95.60
674;DHT22;319;48.764;9.174;2023-05-10T09:19:45;20.40;95.70
674;DHT22;319;48.764;9.174;2023-05-10T09:22:12;20.40;95.10
674;DHT22;319;48.764;9.174;2023-05-10T09:24:39;20.20;95.30
674;DHT22;319;48.764;9.174;2023-05-10T09:27:12;20.10;95.20
674;DHT22;319;48.764;9.174;2023-05-10T09:29:39;19.60;95.40
674;DHT22;319;48.764;9.174;2023-05-10T09:32:06;19.30;96.40
674;DHT22;319;48.764;9.174;2023-05-10T09:34:34;19.10;96.10
674;DHT22;319;48.764;9.174;2023-05-10T09:37:05;19.20;96.40
674;DHT22;319;48.764;9.174;2023-05-10T09:39:34;19.30;96.00
674;DHT22;319;48.764;9.174;2023-05-10T09:42:03;19.30;96.00
674;DHT22;319;48.764;9.174;2023-05-10T09:44:32;19.50;96.00
674;DHT22;319;48.764;9.174;2023-05-10T09:46:59;19.70;96.00
674;DHT22;319;48.764;9.174;2023-05-10T09:49:26;20.00;95.40
674;DHT22;319;48.764;9.174;2023-05-10T09:52:01;20.20;95.00
674;DHT22;319;48.764;9.174;2023-05-10T09:54:28;20.60;94.70
674;DHT22;319;48.764;9.174;2023-05-10T09:56:55;20.70;93.80
674;DHT22;319;48.764;9.174;2023-05-10T09:59:25;20.80;93.70
674;DHT22;319;48.764;9.174;2023-05-10T10:01:56;21.00;94.00
674;DHT22;319;48.764;9.174;2023-05-10T10:04:23;21.20;94.00
674;DHT22;319;48.764;9.174;2023-05-10T10:06:59;21.50;92.80
674;DHT22;319;48.764;9.174;2023-05-10T10:09:27;21.90;91.60
674;DHT22;319;48.764;9.174;2023-05-10T10:11:54;21.90;91.50
674;DHT22;319;48.764;9.174;2023-05-10T10:14:22;21.70;90.90
674;DHT22;319;48.764;9.174;2023-05-10T10:16:49;21.70;91.10
674;DHT22;319;48.764;9.174;2023-05-10T10:19:18;21.90;91.00
674;DHT22;319;48.764;9.174;2023-05-10T10:21:46;22.00;90.40
674;DHT22;319;48.764;9.174;2023-05-10T10:24:13;22.00;90.30
674;DHT22;319;48.764;9.174;2023-05-10T10:26:40;21.80;90.40
674;DHT22;319;48.764;9.174;2023-05-10T10:29:20;21.90;90.90
674;DHT22;319;48.764;9.174;2023-05-10T10:31:52;21.90;90.90
674;DHT22;319;48.764;9.174;2023-05-10T10:34:36;21.60;90.30
674;DHT22;319;48.764;9.174;2023-05-10T10:37:08;21.40;90.40
674;DHT22;319;48.764;9.174;2023-05-10T10:39:35;21.20;90.90
674;DHT22;319;48.764;9.174;2023-05-10T10:42:03;21.00;91.40
674;DHT22;319;48.764;9.174;2023-05-10T10:44:35;20.90;91.40
674;DHT22;319;48.764;9.174;2023-05-10T10:47:23;20.90;91.10
674;DHT22;319;48.764;9.174;2023-05-10T10:50:01;20.80;90.80
674;DHT22;319;48.764;9.174;2023-05-10T10:52:31;20.80;91.00
674;DHT22;319;48.764;9.174;2023-05-10T10:55:01;20.70;91.10
674;DHT22;319;48.764;9.174;2023-05-10T10:57:43;20.00;91.40
674;DHT22;319;48.764;9.174;2023-05-10T11:00:29;19.40;91.90
674;DHT22;319;48.764;9.174;2023-05-10T11:03:03;18.70;92.00
674;DHT22;319;48.764;9.174;2023-05-10T11:05:42;18.30;93.40
674;DHT22;319;48.764;9.174;2023-05-10T11:08:18;18.20;93.90
674;DHT22;319;48.764;9.174;2023-05-10T11:10:52;18.10;92.60
674;DHT22;319;48.764;9.174;2023-05-10T11:13:28;18.10;92.90
674;DHT22;319;48.764;9.174;2023-05-10T11:15:55;18.10;92.40
674;DHT22;319;48.764;9.174;2023-05-10T11:18:25;18.00;92.60
674;DHT22;319;48.764;9.174;2023-05-10T11:20:57;18.00;92.70
674;DHT22;319;48.764;9.174;2023-05-10T11:23:30;17.90;93.10
674;DHT22;319;48.764;9.174;2023-05-10T11:25:57;17.80;93.40
674;DHT22;319;48.764;9.174;2023-05-10T11:28:24;17.90;93.40
674;DHT22;319;48.764;9.174;2023-05-10T11:30:52;18.10;93.40
674;DHT22;319;48.764;9.174;2023-05-10T11:33:20;18.20;92.80
674;DHT22;319;48.764;9.174;2023-05-10T11:35:47;18.40;92.60
674;DHT22;319;48.764;9.174;2023-05-10T11:38:15;18.60;92.50
674;DHT22;319;48.764;9.174;2023-05-10T11:40:42;18.70;91.70
674;DHT22;319;48.764;9.174;2023-05-10T11:43:13;18.90;92.00
674;DHT22;319;48.764;9.174;2023-05-10T11:45:41;19.20;91.50
674;DHT22;319;48.764;9.174;2023-05-10T11:48:08;19.30;91.00
674;DHT22;319;48.764;9.174;2023-05-10T11:50:35;19.10;90.90
674;DHT22;319;48.764;9.174;2023-05-10T11:53:02;18.90;91.30
674;DHT22;319;48.764;9.174;2023-05-10T11:55:33;18.70;91.90
674;DHT22;319;48.764;9.174;2023-05-10T11:58:01;19.00;92.00
674;DHT22;319;48.764;9.174;2023-05-10T12:00:29;19.10;92.10
674;DHT22;319;48.764;9.174;2023-05-10T12:02:57;19.20;92.10
674;DHT22;319;48.764;9.174;2023-05-10T12:05:24;19.30;92.10
674;DHT22;319;48.764;9.174;2023-05-10T12:07:51;19.40;92.50
674;DHT22;319;48.764;9.174;2023-05-10T12:10:25;19.30;92.50
674;DHT22;319;48.764;9.174;2023-05-10T12:12:54;19.30;92.60
674;DHT22;319;48.764;9.174;2023-05-10T12:15:24;19.30;91.90
674;DHT22;319;48.764;9.174;2023-05-10T12:17:52;19.40;92.10
674;DHT22;319;48.764;9.174;2023-05-10T12:20:22;19.50;91.60
674;DHT22;319;48.764;9.174;2023-05-10T12:22:54;19.50;91.60
674;DHT22;319;48.764;9.174;2023-05-10T12:25:34;19.70;91.50
674;DHT22;319;48.764;9.174;2023-05-10T12:28:15;19.90;91.00
674;DHT22;319;48.764;9.174;2023-05-10T12:30:49;20.00;91.00
674;DHT22;319;48.764;9.174;2023-05-10T12:33:19;20.30;91.00
674;DHT22;319;48.764;9.174;2023-05-10T12:35:47;20.60;90.60
674;DHT22;319;48.764;9.174;2023-05-10T12:38:28;20.60;89.20
674;DHT22;319;48.764;9.174;2023-05-10T12:40:57;20.70;89.10
674;DHT22;319;48.764;9.174;2023-05-10T12:43:25;20.60;87.70
674;DHT22;319;48.764;9.174;2023-05-10T12:45:52;20.70;88.10
674;DHT22;319;48.764;9.174;2023-05-10T12:48:19;20.50;87.00
674;DHT22;319;48.764;9.174;2023-05-10T12:50:46;20.40;87.50
674;DHT22;319;48.764;9.174;2023-05-10T12:53:14;20.40;87.80
674;DHT22;319;48.764;9.174;2023-05-10T12:55:41;20.40;86.80
674;DHT22;319;48.764;9.174;2023-05-10T12:58:08;20.10;87.20
674;DHT22;319;48.764;9.174;2023-05-10T13:00:36;20.20;88.10
674;DHT22;319;48.764;9.174;2023-05-10T13:03:03;20.20;88.50
674;DHT22;319;48.764;9.174;2023-05-10T13:05:31;20.00;88.60
674;DHT22;319;48.764;9.174;2023-05-10T13:07:58;19.70;89.30
674;DHT22;319;48.764;9.174;2023-05-10T13:10:25;19.50;90.20
674;DHT22;319;48.764;9.174;2023-05-10T13:12:52;19.40;90.40
674;DHT22;319;48.764;9.174;2023-05-10T13:15:28;19.20;90.80
674;DHT22;319;48.764;9.174;2023-05-10T13:18:01;19.20;90.80
674;DHT22;319;48.764;9.174;2023-05-10T13:20:28;19.20;91.00
674;DHT22;319;48.764;9.174;2023-05-10T13:23:02;19.10;91.00
674;DHT22;319;48.764;9.174;2023-05-10T13:25:29;19.30;90.70
674;DHT22;319;48.764;9.174;2023-05-10T13:27:56;19.30;90.20
674;DHT22;319;48.764;9.174;2023-05-10T13:30:23;19.60;90.00
674;DHT22;319;48.764;9.174;2023-05-10T13:32:50;19.90;89.30
674;DHT22;319;48.764;9.174;2023-05-10T13:35:18;20.10;88.60
674;DHT22;319;48.764;9.174;2023-05-10T13:37:45;20.40;87.50
674;DHT22;319;48.764;9.174;2023-05-10T13:40:12;20.50;86.90
674;DHT22;319;48.764;9.174;2023-05-10T13:42:40;20.70;86.60
674;DHT22;319;48.764;9.174;2023-05-10T13:45:08;20.80;85.90
674;DHT22;319;48.764;9.174;2023-05-10T13:47:37;20.80;85.60
674;DHT22;319;48.764;9.174;2023-05-10T13:50:07;20.80;85.10
674;DHT22;319;48.764;9.174;2023-05-10T13:52:35;20.60;85.80
674;DHT22;319;48.764;9.174;2023-05-10T13:55:03;20.50;85.50
674;DHT22;319;48.764;9.174;2023-05-10T13:57:30;20.40;86.30
674;DHT22;319;48.764;9.174;2023-05-10T13:59:59;20.30;85.60
674;DHT22;319;48.764;9.174;2023-05-10T14:02:26;20.30;86.60
674;DHT22;319;48.764;9.174;2023-05-10T14:04:53;20.40;85.60
674;DHT22;319;48.764;9.174;2023-05-10T14:07:23;20.60;84.70
674;DHT22;319;48.764;9.174;2023-05-10T14:09:55;20.70;83.00
674;DHT22;319;48.764;9.174;2023-05-10T14:12:22;20.60;81.40
674;DHT22;319;48.764;9.174;2023-05-10T14:14:49;20.40;82.20
674;DHT22;319;48.764;9.174;2023-05-10T14:17:16;20.60;82.30
674;DHT22;319;48.764;9.174;2023-05-10T14:19:43;20.60;81.70
674;DHT22;319;48.764;9.174;2023-05-10T14:22:10;20.80;81.60
674;DHT22;319;48.764;9.174;2023-05-10T14:24:38;20.70;80.50
674;DHT22;319;48.764;9.174;2023-05-10T14:27:06;20.60;80.40
674;DHT22;319;48.764;9.174;2023-05-10T14:29:33;20.70;80.60
674;DHT22;319;48.764;9.174;2023-05-10T14:32:00;20.80;80.70
674;DHT22;319;48.764;9.174;2023-05-10T14:34:27;20.90;79.80
674;DHT22;319;48.764;9.174;2023-05-10T14:36:56;21.00;81.20
674;DHT22;319;48.764;9.174;2023-05-10T14:39:23;21.20;80.50
674;DHT22;319;48.764;9.174;2023-05-10T14:41:50;21.30;78.90
674;DHT22;319;48.764;9.174;2023-05-10T14:44:19;21.00;78.60
674;DHT22;319;48.764;9.174;2023-05-10T14:46:46;20.90;78.90
674;DHT22;319;48.764;9.174;2023-05-10T14:49:13;20.90;79.10
674;DHT22;319;48.764;9.174;2023-05-10T14:51:40;20.60;79.10
674;DHT22;319;48.764;9.174;2023-05-10T14:54:08;20.60;79.90
674;DHT22;319;48.764;9.174;2023-05-10T14:56:35;20.60;79.90
674;DHT22;319;48.764;9.174;2023-05-10T14:59:04;20.20;80.00
674;DHT22;319;48.764;9.174;2023-05-10T15:01:32;20.10;80.60
674;DHT22;319;48.764;9.174;2023-05-10T15:04:03;20.10;81.00
674;DHT22;319;48.764;9.174;2023-05-10T15:06:34;20.20;81.00
674;DHT22;319;48.764;9.174;2023-05-10T15:09:02;20.20;80.40
674;DHT22;319;48.764;9.174;2023-05-10T15:11:29;20.50;80.10
674;DHT22;319;48.764;9.174;2023-05-10T15:13:58;20.40;80.50
674;DHT22;319;48.764;9.174;2023-05-10T15:16:25;20.40;80.60
674;DHT22;319;48.764;9.174;2023-05-10T15:18:53;20.40;81.30
674;DHT22;319;48.764;9.174;2023-05-10T15:21:23;20.50;80.20
674;DHT22;319;48.764;9.174;2023-05-10T15:23:52;20.70;80.00
674;DHT22;319;48.764;9.174;2023-05-10T15:26:22;20.60;80.30
674;DHT22;319;48.764;9.174;2023-05-10T15:28:51;20.70;80.50
674;DHT22;319;48.764;9.174;2023-05-10T15:31:18;20.60;81.00
674;DHT22;319;48.764;9.174;2023-05-10T15:33:45;20.50;81.80
674;DHT22;319;48.764;9.174;2023-05-10T15:36:14;20.00;82.10
674;DHT22;319;48.764;9.174;2023-05-10T15:38:43;19.70;82.90
674;DHT22;319;48.764;9.174;2023-05-10T15:41:10;19.70;83.10
674;DHT22;319;48.764;9.174;2023-05-10T15:43:37;19.60;83.60
674;DHT22;319;48.764;9.174;2023-05-10T15:46:04;19.90;83.80
674;DHT22;319;48.764;9.174;2023-05-10T15:48:31;20.10;83.70
674;DHT22;319;48.764;9.174;2023-05-10T15:51:01;20.20;83.00
674;DHT22;319;48.764;9.174;2023-05-10T15:53:31;20.20;81.90
674;DHT22;319;48.764;9.174;2023-05-10T15:56:06;20.20;82.00
674;DHT22;319;48.764;9.174;2023-05-10T15:58:33;20.20;81.10
674;DHT22;319;48.764;9.174;2023-05-10T16:01:00;20.30;80.80
674;DHT22;319;48.764;9.174;2023-05-10T16:03:27;20.30;79.90
674;DHT22;319;48.764;9.174;2023-05-10T16:05:55;20.20;78.80
674;DHT22;319;48.764;9.174;2023-05-10T16:08:22;20.20;79.00
674;DHT22;319;48.764;9.174;2023-05-10T16:10:51;20.10;78.90
674;DHT22;319;48.764;9.174;2023-05-10T16:13:18;20.00;78.70
674;DHT22;319;48.764;9.174;2023-05-10T16:15:45;20.00;78.60
674;DHT22;319;48.764;9.174;2023-05-10T16:18:15;20.00;78.50
674;DHT22;319;48.764;9.174;2023-05-10T16:20:42;20.00;79.00
674;DHT22;319;48.764;9.174;2023-05-10T16:23:10;20.00;79.50
674;DHT22;319;48.764;9.174;2023-05-10T16:25:37;20.20;79.40
674;DHT22;319;48.764;9.174;2023-05-10T16:28:06;20.30;79.00
674;DHT22;319;48.764;9.174;2023-05-10T16:30:33;20.30;78.70
674;DHT22;319;48.764;9.174;2023-05-10T16:33:03;20.30;78.50
674;DHT22;319;48.764;9.174;2023-05-10T16:35:35;20.40;78.00
674;DHT22;319;48.764;9.174;2023-05-10T16:38:44;20.40;78.00
674;DHT22;319;48.764;9.174;2023-05-10T16:41:04;20.40;77.80
674;DHT22;319;48.764;9.174;2023-05-10T16:43:34;20.30;77.90
674;DHT22;319;48.764;9.174;2023-05-10T16:46:01;20.20;78.00
674;DHT22;319;48.764;9.174;2023-05-10T16:48:28;20.00;79.20
674;DHT22;319;48.764;9.174;2023-05-10T16:50:55;20.00;79.30